createdAt,value
2022-09-15T00:00:31.476Z,96934.47
2022-09-15T00:03:20.790Z,96930.34
2022-09-15T00:06:12.372Z,96916.38
2022-09-15T00:09:00.774Z,96908.88
2022-09-15T00:12:00.117Z,96896.06
2022-09-15T00:14:48.432Z,96894.38
2022-09-15T00:17:50.699Z,96892.16
2022-09-15T00:20:42.049Z,96876.50
2022-09-15T00:23:30.326Z,96880.81
2022-09-15T00:26:27.478Z,96876.13
2022-09-15T00:29:17.153Z,96863.81
2022-09-15T00:32:11.545Z,96857.06
2022-09-15T00:34:59.925Z,96855.81
2022-09-15T00:37:48.247Z,96844.47
2022-09-15T00:40:45.489Z,96859.19
2022-09-15T00:43:46.845Z,96860.69
2022-09-15T00:46:39.622Z,96857.72
2022-09-15T00:49:37.574Z,96855.75
2022-09-15T00:52:33.428Z,96850.00
2022-09-15T00:55:27.632Z,96844.72
2022-09-15T00:58:19.855Z,96837.81
2022-09-15T01:01:09.819Z,96829.63
2022-09-15T01:04:08.891Z,96825.91
2022-09-15T01:07:00.677Z,96814.13
2022-09-15T01:09:53.851Z,96818.09
2022-09-15T01:12:42.911Z,96818.09
2022-09-15T01:15:48.115Z,96823.28
2022-09-15T01:18:43.937Z,96805.75
2022-09-15T01:21:42.874Z,96802.41
2022-09-15T01:24:55.381Z,96794.00
2022-09-15T01:28:37.309Z,96789.22
2022-09-15T01:31:31.441Z,96791.28
2022-09-15T01:34:21.229Z,96794.41
2022-09-15T01:37:15.898Z,96794.56
2022-09-15T01:40:05.146Z,96794.91
2022-09-15T01:43:03.211Z,96804.19
2022-09-15T01:45:53.121Z,96802.88
2022-09-15T01:48:44.549Z,96796.69
2022-09-15T01:51:35.443Z,96787.19
2022-09-15T01:54:33.852Z,96795.88
2022-09-15T01:57:23.095Z,96793.66
2022-09-15T02:00:15.305Z,96788.31
2022-09-15T02:03:11.815Z,96807.78
2022-09-15T02:06:07.387Z,96806.84
2022-09-15T02:09:01.523Z,96812.81
2022-09-15T02:11:55.450Z,96820.84
2022-09-15T02:14:55.471Z,96805.09
2022-09-15T02:17:50.662Z,96807.25
2022-09-15T02:20:45.247Z,96803.41
2022-09-15T02:23:40.176Z,96800.78
2022-09-15T02:26:30.482Z,96787.75
2022-09-15T02:29:30.152Z,96783.06
2022-09-15T02:32:23.265Z,96769.03
2022-09-15T02:35:13.387Z,96769.84
2022-09-15T02:38:04.379Z,96760.38
2022-09-15T02:40:54.294Z,96766.22
2022-09-15T02:43:50.336Z,96766.16
2022-09-15T02:46:39.279Z,96767.56
2022-09-15T02:49:36.587Z,96760.34
2022-09-15T02:52:25.497Z,96761.25
2022-09-15T02:55:23.278Z,96758.03
2022-09-15T02:58:12.941Z,96756.47
2022-09-15T03:01:11.188Z,96761.09
2022-09-15T03:04:00.297Z,96759.78
2022-09-15T03:06:57.436Z,96758.31
2022-09-15T03:09:46.207Z,96757.16
2022-09-15T03:12:45.608Z,96751.22
2022-09-15T03:15:35.633Z,96751.47
2022-09-15T03:18:32.146Z,96748.84
2022-09-15T03:21:20.727Z,96757.88
2022-09-15T03:24:19.343Z,96760.59
2022-09-15T03:27:07.606Z,96763.06
2022-09-15T03:30:05.834Z,96745.88
2022-09-15T03:32:55.512Z,96757.38
2022-09-15T03:35:53.375Z,96745.28
2022-09-15T03:38:41.942Z,96746.84
2022-09-15T03:41:30.346Z,96739.66
2022-09-15T03:44:27.894Z,96731.22
2022-09-15T03:47:16.295Z,96726.94
2022-09-15T03:50:15.010Z,96727.63
2022-09-15T03:53:03.307Z,96732.28
2022-09-15T03:56:10.766Z,96727.38
2022-09-15T03:58:59.182Z,96730.81
2022-09-15T04:01:56.368Z,96717.16
2022-09-15T04:04:44.707Z,96725.47
2022-09-15T04:07:37.629Z,96719.25
2022-09-15T04:10:26.056Z,96726.97
2022-09-15T04:13:17.432Z,96723.91
2022-09-15T04:16:08.231Z,96729.94
2022-09-15T04:18:57.604Z,96723.31
2022-09-15T04:21:47.521Z,96719.22
2022-09-15T04:24:37.369Z,96720.03
2022-09-15T04:27:34.454Z,96725.75
2022-09-15T04:30:23.009Z,96720.50
2022-09-15T04:33:11.352Z,96719.13
2022-09-15T04:36:00.367Z,96719.66
2022-09-15T04:38:49.048Z,96716.19
2022-09-15T04:41:39.383Z,96717.22
2022-09-15T04:44:36.775Z,96715.66
2022-09-15T04:47:25.122Z,96718.09
2022-09-15T04:50:13.571Z,96705.72
2022-09-15T04:53:01.861Z,96706.50
2022-09-15T04:56:03.465Z,96709.34
2022-09-15T04:58:57.274Z,96718.53
2022-09-15T05:01:48.718Z,96722.16
2022-09-15T05:04:43.067Z,96712.16
2022-09-15T05:07:31.539Z,96719.34
2022-09-15T05:10:19.886Z,96724.56
2022-09-15T05:13:08.146Z,96711.72
2022-09-15T05:15:57.976Z,96723.16
2022-09-15T05:18:57.613Z,96717.88
2022-09-15T05:21:45.891Z,96720.75
2022-09-15T05:24:43.372Z,96719.41
2022-09-15T05:27:32.831Z,96716.19
2022-09-15T05:30:38.037Z,96712.03
2022-09-15T05:33:29.361Z,96712.03
2022-09-15T05:36:27.085Z,96718.75
2022-09-15T05:39:15.522Z,96717.53
2022-09-15T05:42:04.079Z,96719.19
2022-09-15T05:44:58.518Z,96718.47
2022-09-15T05:47:46.917Z,96720.59
2022-09-15T05:50:50.397Z,96726.50
2022-09-15T05:53:38.856Z,96723.28
2022-09-15T05:56:33.244Z,96720.13
2022-09-15T05:59:21.538Z,96724.63
2022-09-15T06:02:16.121Z,96727.66
2022-09-15T06:05:04.536Z,96723.41
2022-09-15T06:07:55.150Z,96728.47
2022-09-15T06:10:43.772Z,96722.25
2022-09-15T06:13:32.284Z,96718.25
2022-09-15T06:16:23.371Z,96724.75
2022-09-15T06:19:11.708Z,96718.91
2022-09-15T06:22:08.894Z,96714.88
2022-09-15T06:24:58.537Z,96720.09
2022-09-15T06:27:55.602Z,96727.94
2022-09-15T06:30:48.966Z,96729.13
2022-09-15T06:33:37.393Z,96736.66
2022-09-15T06:36:31.154Z,96731.06
2022-09-15T06:39:19.440Z,96733.91
2022-09-15T06:42:10.341Z,96742.38
2022-09-15T06:45:04.414Z,96740.59
2022-09-15T06:48:23.595Z,96743.91
2022-09-15T06:51:12.758Z,96750.03
2022-09-15T06:54:00.966Z,96750.75
2022-09-15T06:56:55.481Z,96752.59
2022-09-15T06:59:45.156Z,96769.06
2022-09-15T07:02:39.655Z,96764.38
2022-09-15T07:05:28.527Z,96773.97
2022-09-15T07:08:22.987Z,96771.13
2022-09-15T07:11:11.664Z,96775.13
2022-09-15T07:14:06.229Z,96798.31
2022-09-15T07:16:55.948Z,96823.69
2022-09-15T07:19:45.399Z,96826.19
2022-09-15T07:22:33.797Z,96839.31
2022-09-15T07:25:22.290Z,96842.19
2022-09-15T07:28:11.160Z,96838.00
2022-09-15T07:30:59.493Z,96853.81
2022-09-15T07:33:49.811Z,96852.00
2022-09-15T07:36:38.553Z,96864.34
2022-09-15T07:39:26.967Z,96862.25
2022-09-15T07:42:15.591Z,96867.38
2022-09-15T07:45:05.593Z,96890.44
2022-09-15T07:47:54.611Z,96888.56
2022-09-15T07:50:47.913Z,96902.75
2022-09-15T07:53:36.383Z,96917.91
2022-09-15T07:56:25.274Z,96915.19
2022-09-15T07:59:13.696Z,96920.16
2022-09-15T08:02:02.083Z,96927.84
2022-09-15T08:04:58.076Z,96931.19
2022-09-15T08:07:47.862Z,96944.00
2022-09-15T08:10:39.161Z,96941.44
2022-09-15T08:13:27.559Z,96944.88
2022-09-15T08:16:18.095Z,96942.72
2022-09-15T08:19:06.617Z,96958.69
2022-09-15T08:22:01.809Z,96963.53
2022-09-15T08:24:51.505Z,96975.69
2022-09-15T08:27:39.990Z,96964.47
2022-09-15T08:30:29.058Z,96970.25
2022-09-15T08:33:17.461Z,96988.97
2022-09-15T08:36:08.227Z,96980.44
2022-09-15T08:38:57.021Z,96995.72
2022-09-15T08:41:49.347Z,97008.50
2022-09-15T08:44:44.369Z,97001.09
2022-09-15T08:47:37.352Z,96995.91
2022-09-15T08:50:30.034Z,97003.66
2022-09-15T08:53:23.711Z,97006.47
2022-09-15T08:56:17.153Z,97005.34
2022-09-15T08:59:06.889Z,97017.53
2022-09-15T09:02:29.598Z,97014.50
2022-09-15T09:05:37.074Z,97013.44
2022-09-15T09:08:42.034Z,97042.09
2022-09-15T09:11:43.853Z,97032.53
2022-09-15T09:14:44.831Z,97041.97
2022-09-15T09:17:47.230Z,97054.03
2022-09-15T09:20:50.041Z,97044.72
2022-09-15T09:23:44.286Z,97059.31
2022-09-15T09:26:35.866Z,97073.28
2022-09-15T09:29:31.862Z,97077.56
2022-09-15T09:32:24.673Z,97080.34
2022-09-15T09:35:21.704Z,97082.19
2022-09-15T09:38:11.234Z,97070.06
2022-09-15T09:41:02.576Z,97071.38
2022-09-15T09:43:53.459Z,97069.94
2022-09-15T09:46:42.480Z,97082.50
2022-09-15T09:49:44.377Z,97077.75
2022-09-15T09:52:37.336Z,97086.84
2022-09-15T09:55:27.929Z,97091.19
2022-09-15T09:58:20.905Z,97094.72
2022-09-15T10:01:11.945Z,97092.13
2022-09-15T10:04:19.188Z,97092.28
2022-09-15T10:07:10.036Z,97072.47
2022-09-15T10:10:00.942Z,97093.00
2022-09-15T10:12:50.486Z,97080.81
2022-09-15T10:15:45.171Z,97091.53
2022-09-15T10:18:35.467Z,97089.94
2022-09-15T10:21:29.670Z,97095.00
2022-09-15T10:24:36.267Z,97097.16
2022-09-15T10:27:31.678Z,97103.09
2022-09-15T10:30:20.854Z,97100.09
2022-09-15T10:33:20.924Z,97093.94
2022-09-15T10:36:15.217Z,97094.53
2022-09-15T10:39:12.051Z,97090.00
2022-09-15T10:42:14.043Z,97086.84
2022-09-15T10:45:16.067Z,97087.06
2022-09-15T10:48:25.581Z,97088.72
2022-09-15T10:51:33.542Z,97087.84
2022-09-15T10:54:45.487Z,97087.03
2022-09-15T10:57:55.509Z,97090.25
2022-09-15T11:00:56.203Z,97087.75
2022-09-15T11:04:30.510Z,97083.97
2022-09-15T11:07:30.392Z,97079.75
2022-09-15T11:10:27.023Z,97076.13
2022-09-15T11:13:27.371Z,97072.75
2022-09-15T11:16:29.509Z,97074.06
2022-09-15T11:19:33.794Z,97066.78
2022-09-15T11:22:27.265Z,97067.88
2022-09-15T11:25:20.703Z,97071.72
2022-09-15T11:28:19.221Z,97061.56
2022-09-15T11:31:16.513Z,97067.00
2022-09-15T11:34:12.761Z,97054.25
2022-09-15T11:37:07.307Z,97046.72
2022-09-15T11:40:01.101Z,97052.38
2022-09-15T11:42:54.555Z,97052.19
2022-09-15T11:45:49.802Z,97044.34
2022-09-15T11:48:46.197Z,97033.97
2022-09-15T11:51:41.771Z,97031.19
2022-09-15T11:54:37.555Z,97030.69
2022-09-15T11:57:31.745Z,97035.94
2022-09-15T12:00:21.664Z,97033.56
2022-09-15T12:03:19.367Z,97029.03
2022-09-15T12:06:16.301Z,97041.81
2022-09-15T12:09:06.773Z,97025.00
2022-09-15T12:11:59.621Z,97035.53
2022-09-15T12:14:50.393Z,97025.81
2022-09-15T12:17:46.560Z,97034.22
2022-09-15T12:20:40.874Z,97027.25
2022-09-15T12:23:35.098Z,97031.88
2022-09-15T12:26:26.239Z,97039.56
2022-09-15T12:29:42.483Z,97021.50
2022-09-15T12:32:33.292Z,97020.53
2022-09-15T12:35:33.313Z,97020.66
2022-09-15T12:38:24.288Z,97023.59
2022-09-15T12:41:14.258Z,97015.19
2022-09-15T12:44:21.140Z,97014.41
2022-09-15T12:47:21.983Z,97006.94
2022-09-15T12:50:25.298Z,97004.97
2022-09-15T12:53:20.266Z,97003.38
2022-09-15T12:56:12.050Z,97004.38
2022-09-15T12:59:08.078Z,97007.84
2022-09-15T13:01:57.683Z,97000.41
2022-09-15T13:04:55.501Z,96996.63
2022-09-15T13:08:01.648Z,96990.84
2022-09-15T13:11:02.995Z,97001.00
2022-09-15T13:13:54.471Z,96999.19
2022-09-15T13:16:51.822Z,96993.88
2022-09-15T13:19:46.751Z,96996.31
2022-09-15T13:22:38.511Z,96998.69
2022-09-15T13:25:30.364Z,96981.09
2022-09-15T13:28:19.017Z,96980.16
2022-09-15T13:31:22.172Z,96975.25
2022-09-15T13:35:04.317Z,96978.47
2022-09-15T13:38:26.473Z,96974.47
2022-09-15T13:41:46.265Z,96978.41
2022-09-15T13:45:17.566Z,96972.72
2022-09-15T13:48:24.172Z,96986.84
2022-09-15T13:51:20.672Z,96975.56
2022-09-15T13:54:18.972Z,96984.19
2022-09-15T13:57:07.328Z,96978.88
2022-09-15T13:59:58.504Z,96971.50
2022-09-15T14:02:49.928Z,96969.53
2022-09-15T14:05:38.666Z,96963.53
2022-09-15T14:08:35.053Z,96953.59
2022-09-15T14:11:27.704Z,96956.53
2022-09-15T14:14:35.586Z,96967.16
2022-09-15T14:17:25.438Z,96951.78
2022-09-15T14:20:26.171Z,96951.72
2022-09-15T14:23:17.387Z,96949.88
2022-09-15T14:26:14.857Z,96948.97
2022-09-15T14:29:05.573Z,96947.50
2022-09-15T14:31:55.096Z,96942.75
2022-09-15T14:34:54.218Z,96946.56
2022-09-15T14:37:42.539Z,96949.03
2022-09-15T14:40:33.646Z,96945.44
2022-09-15T14:43:33.117Z,96938.28
2022-09-15T14:46:21.477Z,96925.00
2022-09-15T14:49:16.829Z,96930.94
2022-09-15T14:52:05.594Z,96933.41
2022-09-15T14:55:04.999Z,96943.22
2022-09-15T14:57:58.693Z,96947.19
2022-09-15T15:01:13.745Z,96956.41
2022-09-15T15:04:17.060Z,96947.03
2022-09-15T15:07:15.058Z,96942.97
2022-09-15T15:10:07.168Z,96944.59
2022-09-15T15:12:59.860Z,96943.28
2022-09-15T15:15:48.744Z,96940.97
2022-09-15T15:18:43.330Z,96931.22
2022-09-15T15:21:37.677Z,96929.59
2022-09-15T15:24:26.182Z,96928.81
2022-09-15T15:27:41.876Z,96929.66
2022-09-15T15:30:36.309Z,96935.34
2022-09-15T15:33:28.536Z,96922.97
2022-09-15T15:36:22.813Z,96928.75
2022-09-15T15:39:25.599Z,96920.28
2022-09-15T15:42:16.773Z,96917.16
2022-09-15T15:45:23.781Z,96922.06
2022-09-15T15:48:12.111Z,96920.56
2022-09-15T15:51:09.781Z,96913.28
2022-09-15T15:53:59.604Z,96916.47
2022-09-15T15:56:56.822Z,96925.25
2022-09-15T15:59:48.175Z,96929.81
2022-09-15T16:02:36.831Z,96930.44
2022-09-15T16:05:31.560Z,96929.84
2022-09-15T16:08:25.638Z,96921.41
2022-09-15T16:11:17.075Z,96919.31
2022-09-15T16:14:05.456Z,96927.69
2022-09-15T16:16:59.937Z,96932.31
2022-09-15T16:19:48.868Z,96950.38
2022-09-15T16:22:43.692Z,96953.72
2022-09-15T16:25:43.031Z,96945.19
2022-09-15T16:28:33.132Z,96944.31
2022-09-15T16:31:30.447Z,96942.34
2022-09-15T16:34:19.548Z,96947.75
2022-09-15T16:37:16.947Z,96952.22
2022-09-15T16:40:06.606Z,96963.22
2022-09-15T16:43:01.591Z,96961.34
2022-09-15T16:45:52.675Z,96966.91
2022-09-15T16:48:42.838Z,96967.09
2022-09-15T16:51:40.121Z,96971.75
2022-09-15T16:54:28.605Z,96977.53
2022-09-15T16:57:25.845Z,96980.50
2022-09-15T17:00:15.529Z,96972.88
2022-09-15T17:03:18.273Z,96977.31
2022-09-15T17:06:07.479Z,96974.91
2022-09-15T17:08:55.772Z,96974.94
2022-09-15T17:11:44.015Z,96973.63
2022-09-15T17:14:32.275Z,96979.72
2022-09-15T17:17:26.708Z,96983.09
2022-09-15T17:20:17.868Z,96972.88
2022-09-15T17:23:17.469Z,96970.63
2022-09-15T17:26:07.882Z,96980.03
2022-09-15T17:29:02.298Z,96978.34
2022-09-15T17:31:50.680Z,96986.06
2022-09-15T17:34:45.126Z,97002.72
2022-09-15T17:37:35.086Z,96991.44
2022-09-15T17:40:30.455Z,96995.97
2022-09-15T17:43:20.591Z,96982.22
2022-09-15T17:46:09.166Z,96989.06
2022-09-15T17:48:57.697Z,96984.31
2022-09-15T17:51:46.098Z,96981.53
2022-09-15T17:54:45.271Z,96998.22
2022-09-15T17:57:33.574Z,96995.84
2022-09-15T18:00:33.462Z,96997.47
2022-09-15T18:03:27.025Z,96994.78
2022-09-15T18:06:15.447Z,97003.78
2022-09-15T18:09:09.997Z,97019.66
2022-09-15T18:12:00.200Z,97017.19
2022-09-15T18:14:54.335Z,97024.47
2022-09-15T18:17:43.613Z,97035.88
2022-09-15T18:20:34.166Z,97038.53
2022-09-15T18:23:24.739Z,97044.00
2022-09-15T18:26:13.122Z,97045.84
2022-09-15T18:29:03.610Z,97043.75
2022-09-15T18:31:53.187Z,97037.03
2022-09-15T18:34:41.686Z,97036.00
2022-09-15T18:37:36.968Z,97022.47
2022-09-15T18:40:26.456Z,97031.78
2022-09-15T18:43:26.576Z,97042.31
2022-09-15T18:46:17.523Z,97044.25
2022-09-15T18:49:09.598Z,97034.91
2022-09-15T18:51:59.346Z,97044.00
2022-09-15T18:54:54.173Z,97038.31
2022-09-15T18:57:43.119Z,97032.53
2022-09-15T19:00:37.740Z,97039.09
2022-09-15T19:03:27.556Z,97026.88
2022-09-15T19:06:22.271Z,97021.88
2022-09-15T19:09:11.091Z,97017.44
2022-09-15T19:11:59.410Z,97013.75
2022-09-15T19:14:48.506Z,97025.16
2022-09-15T19:17:38.371Z,97029.69
2022-09-15T19:20:28.067Z,97021.69
2022-09-15T19:23:22.180Z,97025.47
2022-09-15T19:26:13.921Z,97037.97
2022-09-15T19:29:03.387Z,97041.31
2022-09-15T19:32:00.748Z,97042.63
2022-09-15T19:34:49.395Z,97059.94
2022-09-15T19:37:48.776Z,97061.31
2022-09-15T19:40:37.157Z,97060.13
2022-09-15T19:43:25.625Z,97053.16
2022-09-15T19:46:15.382Z,97072.84
2022-09-15T19:49:04.484Z,97077.72
2022-09-15T19:51:55.608Z,97073.44
2022-09-15T19:54:54.332Z,97066.16
2022-09-15T19:57:43.688Z,97068.94
2022-09-15T20:00:40.959Z,97078.81
2022-09-15T20:03:30.155Z,97082.41
2022-09-15T20:06:19.066Z,97076.31
2022-09-15T20:09:08.806Z,97084.09
2022-09-15T20:12:03.771Z,97082.00
2022-09-15T20:14:53.407Z,97090.66
2022-09-15T20:17:51.762Z,97079.94
2022-09-15T20:20:41.832Z,97075.81
2022-09-15T20:23:36.859Z,97083.72
2022-09-15T20:26:26.756Z,97077.66
2022-09-15T20:29:19.010Z,97091.19
2022-09-15T20:32:07.773Z,97093.72
2022-09-15T20:34:57.410Z,97105.69
2022-09-15T20:37:46.626Z,97094.16
2022-09-15T20:40:35.397Z,97096.25
2022-09-15T20:43:33.363Z,97105.38
2022-09-15T20:46:24.735Z,97108.72
2022-09-15T20:49:14.393Z,97111.44
2022-09-15T20:52:03.877Z,97109.13
2022-09-15T20:54:53.002Z,97118.19
2022-09-15T20:57:41.740Z,97125.66
2022-09-15T21:00:33.803Z,97133.78
2022-09-15T21:03:24.427Z,97136.88
2022-09-15T21:06:24.191Z,97144.09
2022-09-15T21:09:12.819Z,97142.84
2022-09-15T21:12:10.617Z,97145.75
2022-09-15T21:14:59.323Z,97143.41
2022-09-15T21:17:47.993Z,97151.72
2022-09-15T21:20:38.283Z,97140.59
2022-09-15T21:23:37.953Z,97138.56
2022-09-15T21:26:28.055Z,97149.59
2022-09-15T21:29:26.507Z,97138.25
2022-09-15T21:32:15.304Z,97149.91
2022-09-15T21:35:12.884Z,97153.22
2022-09-15T21:38:02.943Z,97153.31
2022-09-15T21:40:51.571Z,97162.59
2022-09-15T21:43:50.355Z,97163.22
2022-09-15T21:46:39.003Z,97168.59
2022-09-15T21:49:27.650Z,97168.91
2022-09-15T21:52:16.275Z,97159.72
2022-09-15T21:55:15.515Z,97173.75
2022-09-15T21:58:04.238Z,97171.22
2022-09-15T22:01:10.872Z,97185.69
2022-09-15T22:04:01.488Z,97175.06
2022-09-15T22:06:50.398Z,97178.59
2022-09-15T22:09:44.855Z,97172.44
2022-09-15T22:12:34.940Z,97174.53
2022-09-15T22:15:29.876Z,97182.06
2022-09-15T22:18:18.632Z,97189.06
2022-09-15T22:21:09.954Z,97178.38
2022-09-15T22:23:59.735Z,97184.22
2022-09-15T22:26:54.607Z,97195.13
2022-09-15T22:29:44.710Z,97199.50
2022-09-15T22:32:39.877Z,97203.97
2022-09-15T22:35:28.628Z,97194.78
2022-09-15T22:38:17.350Z,97215.00
2022-09-15T22:41:07.288Z,97201.94
2022-09-15T22:44:05.855Z,97212.34
2022-09-15T22:46:57.781Z,97214.63
2022-09-15T22:49:46.506Z,97220.47
2022-09-15T22:52:41.083Z,97212.16
2022-09-15T22:55:31.470Z,97218.31
2022-09-15T22:58:26.012Z,97217.16
2022-09-15T23:01:17.017Z,97217.03
2022-09-15T23:04:06.787Z,97236.47
2022-09-15T23:07:04.497Z,97227.00
2022-09-15T23:09:52.825Z,97228.88
2022-09-15T23:12:50.091Z,97229.75
2022-09-15T23:15:38.337Z,97229.69
2022-09-15T23:18:35.820Z,97221.50
2022-09-15T23:21:26.029Z,97229.16
2022-09-15T23:24:23.989Z,97223.19
2022-09-15T23:27:12.283Z,97217.72
2022-09-15T23:30:10.724Z,97225.50
2022-09-15T23:32:59.001Z,97216.00
2022-09-15T23:35:56.365Z,97225.28
2022-09-15T23:38:47.153Z,97218.50
2022-09-15T23:41:36.856Z,97221.16
2022-09-15T23:44:33.868Z,97220.56
2022-09-15T23:47:22.205Z,97227.28
2022-09-15T23:50:19.555Z,97224.09
2022-09-15T23:53:08.159Z,97230.34
2022-09-15T23:56:07.571Z,97219.91
2022-09-15T23:58:55.951Z,97237.41
